Time;durP1;ratioP1;P1;durP2;ratioP2;P2;SDS_P1;SDS_P2;PMS_P1;PMS_P2;Temp;Humidity;BMP_temperature;BMP_pressure;BME280_temperature;BME280_humidity;BME280_pressure;Samples;Min_cycle;Max_cycle;Signal;HPM_P1;HPM_P2
2022/10/31 00:01:17;;;;;;;51.05;30.77;;;12.40;99.90;;;;;;4931670;29;20055;-72
2022/10/31 00:03:43;;;;;;;50.08;33.22;;;12.40;99.90;;;;;;4933410;29;20098;-72
2022/10/31 00:06:08;;;;;;;55.75;30.33;;;12.30;99.90;;;;;;4934000;29;20047;-72
2022/10/31 00:08:34;;;;;;;56.05;32.08;;;12.20;99.90;;;;;;4931777;29;20087;-72
2022/10/31 00:11:00;;;;;;;44.97;29.42;;;12.30;99.90;;;;;;4930114;29;20393;-72
2022/10/31 00:13:26;;;;;;;57.25;31.83;;;12.30;99.90;;;;;;4946538;28;20051;-72
2022/10/31 00:15:51;;;;;;;48.95;28.48;;;12.20;99.90;;;;;;4932181;29;20047;-72
2022/10/31 00:18:17;;;;;;;46.85;28.15;;;12.20;99.90;;;;;;4932303;29;20049;-72
2022/10/31 00:20:43;;;;;;;43.35;26.20;;;12.10;99.90;;;;;;4932392;29;20056;-72
2022/10/31 00:23:10;;;;;;;50.65;27.02;;;12.20;99.90;;;;;;4933841;29;20051;-72
2022/10/31 00:25:37;;;;;;;45.03;25.33;;;12.10;99.90;;;;;;4937668;28;20050;-72
2022/10/31 00:28:07;;;;;;;54.40;26.42;;;11.90;99.90;;;;;;4933714;29;20043;-72
2022/10/31 00:30:33;;;;;;;52.25;26.00;;;11.90;99.90;;;;;;4947806;29;20139;-72
2022/10/31 00:32:59;;;;;;;54.72;29.10;;;11.90;99.90;;;;;;4933489;29;20078;-72
2022/10/31 00:35:25;;;;;;;43.30;26.03;;;11.90;99.90;;;;;;4933282;29;20505;-71
2022/10/31 00:37:52;;;;;;;47.50;25.70;;;11.80;99.90;;;;;;4932107;29;20043;-71
2022/10/31 00:40:18;;;;;;;61.33;28.90;;;11.80;99.90;;;;;;4931676;29;20126;-71
2022/10/31 00:42:43;;;;;;;44.55;28.90;;;11.70;99.90;;;;;;4932539;29;20130;-71
2022/10/31 00:45:10;;;;;;;57.55;28.58;;;11.70;99.90;;;;;;4931968;29;20746;-71
2022/10/31 00:47:35;;;;;;;48.28;29.67;;;11.70;99.90;;;;;;4931731;29;20047;-71
2022/10/31 00:50:01;;;;;;;48.33;27.95;;;11.70;99.90;;;;;;4932366;29;20202;-71
2022/10/31 00:52:26;;;;;;;46.00;25.73;;;11.70;99.90;;;;;;4932834;29;20053;-71
2022/10/31 00:54:52;;;;;;;43.20;27.88;;;11.60;99.90;;;;;;4932655;29;20853;-71
2022/10/31 00:57:18;;;;;;;39.95;24.48;;;11.80;99.90;;;;;;4931533;29;20122;-71
2022/10/31 00:59:43;;;;;;;45.60;25.98;;;11.60;99.90;;;;;;4932454;29;20080;-71
2022/10/31 01:02:09;;;;;;;43.65;25.63;;;11.50;99.90;;;;;;4929948;29;20416;-71
2022/10/31 01:04:34;;;;;;;44.72;26.77;;;11.50;99.90;;;;;;4931917;29;20048;-71
2022/10/31 01:07:00;;;;;;;54.28;29.88;;;11.50;99.90;;;;;;4932323;29;20040;-71
2022/10/31 01:09:26;;;;;;;50.03;28.17;;;11.50;99.90;;;;;;4932963;29;20394;-71
2022/10/31 01:11:51;;;;;;;59.88;28.20;;;11.60;99.90;;;;;;4932611;29;20083;-71
2022/10/31 01:14:18;;;;;;;42.65;27.05;;;11.40;99.90;;;;;;4931177;29;20055;-71
2022/10/31 01:16:44;;;;;;;45.08;26.73;;;11.50;99.90;;;;;;4929751;29;20047;-71
2022/10/31 01:19:09;;;;;;;43.90;25.08;;;11.40;99.90;;;;;;4929294;29;20716;-71
2022/10/31 01:21:35;;;;;;;41.17;24.05;;;11.30;99.90;;;;;;4932721;29;20051;-71
2022/10/31 01:24:03;;;;;;;40.83;25.52;;;11.40;99.90;;;;;;4931858;29;20052;-71
2022/10/31 01:26:31;;;;;;;47.88;28.60;;;11.30;99.90;;;;;;4932817;29;20200;-71
2022/10/31 01:29:03;;;;;;;50.45;24.55;;;11.30;99.90;;;;;;4931740;29;20063;-71
2022/10/31 01:31:31;;;;;;;45.08;27.83;;;11.30;99.90;;;;;;4931822;29;20520;-71
2022/10/31 01:33:58;;;;;;;39.97;27.15;;;11.20;99.90;;;;;;4934811;29;20058;-71
2022/10/31 01:36:30;;;;;;;56.50;30.40;;;11.20;99.90;;;;;;4930953;29;20047;-71
2022/10/31 01:38:58;;;;;;;49.15;28.27;;;11.20;99.90;;;;;;4920194;29;20787;-71
2022/10/31 01:41:28;;;;;;;;;;;11.20;99.90;;;;;;4932604;29;20051;-71
2022/10/31 01:43:57;;;;;;;53.63;31.05;;;11.10;99.90;;;;;;4931832;29;20391;-71
2022/10/31 01:46:40;;;;;;;59.47;34.95;;;11.20;99.90;;;;;;4928293;29;20087;-71
2022/10/31 01:49:17;;;;;;;55.13;32.95;;;11.20;99.90;;;;;;4931482;29;20052;-71
2022/10/31 01:51:50;;;;;;;57.25;34.60;;;11.20;99.90;;;;;;4930203;29;20131;-71
2022/10/31 01:54:20;;;;;;;62.75;34.20;;;11.20;99.90;;;;;;4931602;29;20055;-71
2022/10/31 01:56:50;;;;;;;62.03;34.33;;;11.20;99.90;;;;;;4931674;29;20051;-71
2022/10/31 01:59:19;;;;;;;53.10;33.28;;;11.20;99.90;;;;;;4914838;29;20161;-70
2022/10/31 02:01:47;;;;;;;55.85;31.98;;;11.20;99.90;;;;;;4946078;29;20083;-70
2022/10/31 02:04:14;;;;;;;62.88;32.85;;;11.20;99.90;;;;;;4931108;29;20051;-70
2022/10/31 02:06:55;;;;;;;59.72;32.95;;;11.20;99.90;;;;;;4931793;29;20043;-70
2022/10/31 02:09:23;;;;;;;83.20;37.35;;;11.10;99.90;;;;;;4931614;29;20058;-71
2022/10/31 02:11:52;;;;;;;63.85;36.20;;;11.20;99.90;;;;;;4928504;29;20059;-70
2022/10/31 02:14:18;;;;;;;63.75;38.25;;;11.10;99.90;;;;;;4918463;29;20052;-71
2022/10/31 02:16:43;;;;;;;58.15;36.47;;;11.10;99.90;;;;;;4929571;29;20051;-71
2022/10/31 02:19:17;;;;;;;66.60;36.67;;;11.10;99.90;;;;;;4927560;29;20054;-70
2022/10/31 02:21:57;;;;;;;68.75;38.10;;;11.20;99.90;;;;;;4931151;29;20139;-71
2022/10/31 02:24:44;;;;;;;68.10;39.30;;;11.20;99.90;;;;;;4929311;29;20135;-71
2022/10/31 02:27:31;;;;;;;63.05;37.03;;;11.10;99.90;;;;;;4928765;29;20051;-70
2022/10/31 02:30:27;;;;;;;67.22;40.95;;;11.10;99.90;;;;;;4926315;29;20135;-71
2022/10/31 02:32:59;;;;;;;63.58;38.72;;;11.20;99.90;;;;;;4928699;29;20179;-70
2022/10/31 02:35:49;;;;;;;64.85;38.78;;;11.10;99.90;;;;;;4930285;29;20567;-70
2022/10/31 02:38:42;;;;;;;71.20;38.05;;;11.10;99.90;;;;;;4927207;29;20039;-70
2022/10/31 02:41:26;;;;;;;78.20;40.58;;;11.00;99.90;;;;;;4929839;29;20047;-70
2022/10/31 02:44:44;;;;;;;66.20;38.03;;;11.00;99.90;;;;;;4933033;29;20453;-70
2022/10/31 02:47:14;;;;;;;;;;;11.00;99.90;;;;;;4891088;29;20056;-71
2022/10/31 02:49:50;;;;;;;59.28;37.78;;;10.90;99.90;;;;;;4890699;29;20715;-70
2022/10/31 02:52:25;;;;;;;63.75;36.10;;;11.00;99.90;;;;;;4904326;29;20397;-70
2022/10/31 02:54:52;;;;;;;54.55;33.72;;;10.90;99.90;;;;;;4928789;29;20055;-70
2022/10/31 02:57:23;;;;;;;63.95;35.40;;;10.90;99.90;;;;;;4931292;29;20603;-70
2022/10/31 02:59:53;;;;;;;68.43;37.97;;;10.90;99.90;;;;;;4930566;29;20095;-70
2022/10/31 03:02:22;;;;;;;74.95;39.78;;;10.90;99.90;;;;;;4929796;29;20058;-71
2022/10/31 03:04:47;;;;;;;;;;;11.00;99.90;;;;;;4930558;29;20090;-70
2022/10/31 03:07:32;;;;;;;66.20;37.17;;;10.80;99.90;;;;;;4930648;29;19923;-70
2022/10/31 03:10:34;;;;;;;66.45;35.55;;;10.80;99.90;;;;;;4939276;28;20063;-70
2022/10/31 03:13:18;;;;;;;56.63;35.80;;;10.80;99.90;;;;;;4918687;29;20151;-70
2022/10/31 03:15:46;;;;;;;57.22;34.17;;;10.70;99.90;;;;;;4930606;29;20051;-70
2022/10/31 03:18:31;;;;;;;58.15;35.50;;;10.70;99.90;;;;;;4928836;29;20077;-70
2022/10/31 03:21:04;;;;;;;58.90;35.45;;;11.10;99.90;;;;;;4917361;29;20050;-70
2022/10/31 03:23:31;;;;;;;54.72;33.53;;;10.70;99.90;;;;;;4930455;29;20043;-70
2022/10/31 03:26:02;;;;;;;49.63;33.10;;;10.70;99.90;;;;;;4929103;29;20047;-70
2022/10/31 03:28:31;;;;;;;49.33;33.13;;;10.70;99.90;;;;;;4944886;29;20130;-70
2022/10/31 03:30:59;;;;;;;48.75;32.05;;;10.60;99.90;;;;;;4929906;29;20120;-72
2022/10/31 03:33:33;;;;;;;51.20;32.70;;;10.60;99.90;;;;;;4928795;29;20099;-70
2022/10/31 03:36:03;;;;;;;50.50;31.73;;;10.50;99.90;;;;;;4933327;29;20334;-70
2022/10/31 03:38:31;;;;;;;54.92;34.33;;;10.50;99.90;;;;;;4948068;28;20090;-70
2022/10/31 03:40:58;;;;;;;57.15;34.47;;;10.60;99.90;;;;;;4939694;29;20047;-71
2022/10/31 03:43:30;;;;;;;47.47;30.98;;;10.50;99.90;;;;;;4932123;29;20055;-70
2022/10/31 03:45:56;;;;;;;48.35;30.95;;;10.40;99.90;;;;;;4933093;29;20043;-71
2022/10/31 03:48:23;;;;;;;47.42;32.55;;;10.40;99.90;;;;;;4931759;29;20047;-70
2022/10/31 03:51:21;;;;;;;58.47;31.98;;;10.40;99.90;;;;;;4933986;29;20059;-70
2022/10/31 03:53:56;;;;;;;54.30;31.05;;;10.30;99.90;;;;;;4934291;29;20062;-70
2022/10/31 03:57:08;;;;;;;62.08;31.98;;;10.30;99.90;;;;;;4933701;29;20094;-70
2022/10/31 03:59:40;;;;;;;43.95;30.08;;;10.30;99.90;;;;;;4929750;29;20110;-70
2022/10/31 04:02:10;;;;;;;49.10;28.50;;;10.20;99.90;;;;;;4932876;29;20067;-70
2022/10/31 04:04:38;;;;;;;44.25;29.15;;;10.10;99.90;;;;;;4934485;29;20048;-71
2022/10/31 04:07:06;;;;;;;50.33;29.88;;;10.10;99.90;;;;;;4934991;29;20521;-71
2022/10/31 04:09:33;;;;;;;;;;;10.00;99.90;;;;;;4949811;29;20063;-70
2022/10/31 04:12:01;;;;;;;42.53;29.70;;;9.90;99.90;;;;;;4935252;29;19929;-71
2022/10/31 04:14:29;;;;;;;47.25;27.92;;;9.80;99.90;;;;;;4934127;29;20135;-71
2022/10/31 04:16:55;;;;;;;34.45;23.52;;;9.80;99.90;;;;;;4933496;29;20058;-70
2022/10/31 04:19:21;;;;;;;37.95;26.27;;;9.80;99.90;;;;;;4935232;29;20404;-71
2022/10/31 04:21:46;;;;;;;35.42;23.85;;;9.80;99.90;;;;;;4945532;29;20668;-71
2022/10/31 04:24:12;;;;;;;37.78;26.08;;;9.70;99.90;;;;;;4933320;29;20051;-70
2022/10/31 04:26:37;;;;;;;37.97;24.80;;;9.70;99.90;;;;;;4933295;29;20076;-70
2022/10/31 04:29:03;;;;;;;35.15;21.38;;;9.60;99.90;;;;;;4933724;29;20416;-71
2022/10/31 04:31:29;;;;;;;27.05;21.33;;;9.50;99.90;;;;;;4933310;29;20055;-70
2022/10/31 04:33:55;;;;;;;22.63;18.63;;;9.40;99.90;;;;;;4934370;29;20051;-71
2022/10/31 04:36:20;;;;;;;24.75;19.65;;;9.40;99.90;;;;;;4933730;29;20044;-70
2022/10/31 04:38:46;;;;;;;24.80;19.17;;;9.30;99.90;;;;;;4933101;29;20162;-71
2022/10/31 04:41:12;;;;;;;28.58;19.85;;;9.30;99.90;;;;;;4932036;29;20035;-71
2022/10/31 04:43:37;;;;;;;35.92;24.92;;;9.20;99.90;;;;;;4933074;29;20102;-70
2022/10/31 04:46:04;;;;;;;29.13;22.65;;;9.30;99.90;;;;;;4933548;29;20058;-71
2022/10/31 04:48:29;;;;;;;31.02;20.25;;;9.20;99.90;;;;;;4934612;29;20412;-71
2022/10/31 04:51:02;;;;;;;36.42;23.48;;;9.20;99.90;;;;;;4931710;29;20044;-71
2022/10/31 04:53:28;;;;;;;31.58;22.85;;;9.20;99.90;;;;;;4932572;29;20134;-71
2022/10/31 04:55:54;;;;;;;33.97;24.33;;;9.20;99.90;;;;;;4933361;29;20043;-71
2022/10/31 04:58:20;;;;;;;32.47;21.88;;;9.20;99.90;;;;;;4933910;29;20066;-71
2022/10/31 05:00:45;;;;;;;20.88;16.17;;;9.10;99.90;;;;;;4933287;29;20446;-71
2022/10/31 05:03:11;;;;;;;20.52;17.40;;;8.90;99.90;;;;;;4932311;29;20060;-71
2022/10/31 05:05:37;;;;;;;19.90;16.25;;;9.00;99.90;;;;;;4932877;29;20143;-71
2022/10/31 05:08:03;;;;;;;22.75;15.90;;;8.90;99.90;;;;;;4931463;29;20685;-71
2022/10/31 05:10:30;;;;;;;23.73;17.38;;;8.90;99.90;;;;;;4930783;29;20401;-71
2022/10/31 05:12:58;;;;;;;21.27;15.82;;;9.10;99.90;;;;;;4933455;29;20066;-71
2022/10/31 05:15:25;;;;;;;19.23;17.23;;;8.80;99.90;;;;;;4937830;29;20073;-71
2022/10/31 05:17:51;;;;;;;16.52;8.07;;;8.80;99.90;;;;;;4932915;29;20128;-71
2022/10/31 05:20:19;;;;;;;26.95;20.25;;;8.80;99.90;;;;;;4933597;29;20047;-71
2022/10/31 05:22:50;;;;;;;30.85;20.33;;;8.70;99.90;;;;;;4932648;29;20040;-71
2022/10/31 05:25:17;;;;;;;20.45;12.77;;;8.70;99.90;;;;;;4931200;29;20461;-71
2022/10/31 05:27:45;;;;;;;12.82;11.50;;;8.60;99.90;;;;;;4928299;29;20074;-70
2022/10/31 05:30:13;;;;;;;8.25;5.63;;;8.60;99.90;;;;;;4931284;29;20067;-71
2022/10/31 05:32:49;;;;;;;6.75;4.30;;;8.50;99.90;;;;;;4932112;29;20079;-71
2022/10/31 05:35:20;;;;;;;7.25;4.60;;;8.40;99.90;;;;;;4931817;29;20051;-71
2022/10/31 05:37:46;;;;;;;11.43;10.40;;;8.30;99.90;;;;;;4931983;29;20055;-71
2022/10/31 05:40:14;;;;;;;11.02;10.05;;;8.30;99.90;;;;;;4931066;29;20503;-71
2022/10/31 05:42:41;;;;;;;11.88;10.63;;;8.20;99.90;;;;;;4930034;29;20040;-71
2022/10/31 05:45:12;;;;;;;6.97;5.22;;;8.30;99.90;;;;;;4931278;29;20104;-72
2022/10/31 05:47:38;;;;;;;13.55;11.38;;;8.30;99.90;;;;;;4930311;29;20052;-71
2022/10/31 05:50:05;;;;;;;14.05;11.30;;;8.30;99.90;;;;;;4922713;29;20046;-71
2022/10/31 05:52:31;;;;;;;14.23;12.48;;;8.20;99.90;;;;;;4931749;29;20079;-71
2022/10/31 05:54:57;;;;;;;8.25;5.53;;;8.20;99.90;;;;;;4933044;29;20055;-71
2022/10/31 05:57:22;;;;;;;8.52;5.07;;;8.10;99.90;;;;;;4932379;29;20400;-71
2022/10/31 05:59:48;;;;;;;8.10;4.22;;;8.10;99.90;;;;;;4930190;29;20496;-71
2022/10/31 06:02:13;;;;;;;9.45;6.28;;;8.00;99.90;;;;;;4930405;29;20051;-71
2022/10/31 06:04:39;;;;;;;18.92;15.40;;;8.10;99.90;;;;;;4931479;29;20043;-71
2022/10/31 06:07:05;;;;;;;14.93;13.35;;;7.90;99.90;;;;;;4946556;29;20055;-71
2022/10/31 06:09:30;;;;;;;11.65;5.15;;;7.90;99.90;;;;;;4946290;29;20162;-71
2022/10/31 06:11:56;;;;;;;19.42;14.15;;;7.90;99.90;;;;;;4930318;29;20151;-71
2022/10/31 06:14:21;;;;;;;16.48;14.68;;;7.90;99.90;;;;;;4940231;29;20110;-71
2022/10/31 06:16:47;;;;;;;25.67;15.65;;;7.90;99.90;;;;;;4945473;28;20059;-71
2022/10/31 06:19:13;;;;;;;5.90;4.60;;;7.90;99.90;;;;;;4926651;29;20048;-71
2022/10/31 06:21:38;;;;;;;20.88;14.25;;;7.80;99.90;;;;;;4922798;29;20413;-71
2022/10/31 06:24:04;;;;;;;14.68;13.18;;;7.80;99.90;;;;;;4927953;29;20126;-71
2022/10/31 06:26:30;;;;;;;19.35;15.95;;;7.80;99.90;;;;;;4929363;29;20043;-71
2022/10/31 06:28:55;;;;;;;20.08;15.35;;;7.80;99.90;;;;;;4930662;29;20043;-71
2022/10/31 06:31:21;;;;;;;14.20;8.40;;;7.80;99.90;;;;;;4928526;29;20044;-71
2022/10/31 06:33:47;;;;;;;13.52;6.60;;;7.80;99.90;;;;;;4928401;29;20412;-72
2022/10/31 06:36:12;;;;;;;13.15;6.93;;;7.70;99.90;;;;;;4929577;29;20047;-71
2022/10/31 06:38:38;;;;;;;7.72;4.60;;;7.70;99.90;;;;;;4929014;29;20389;-71
2022/10/31 06:41:07;;;;;;;9.88;5.70;;;7.70;99.90;;;;;;4930271;29;20055;-71
2022/10/31 06:43:33;;;;;;;8.52;5.32;;;7.60;99.90;;;;;;4929360;29;20497;-71
2022/10/31 06:46:03;;;;;;;8.85;5.30;;;7.60;99.90;;;;;;4928428;29;20050;-71
2022/10/31 06:48:28;;;;;;;17.13;15.35;;;7.70;99.90;;;;;;4927528;29;20135;-71
2022/10/31 06:51:00;;;;;;;8.90;5.25;;;7.60;99.90;;;;;;4944962;28;20517;-71
2022/10/31 06:53:29;;;;;;;19.98;17.80;;;7.60;99.90;;;;;;4925160;29;20901;-71
2022/10/31 06:55:58;;;;;;;20.90;17.08;;;7.60;99.90;;;;;;4929326;29;20123;-71
2022/10/31 06:58:23;;;;;;;25.67;20.60;;;7.90;99.90;;;;;;4929173;29;20098;-71
2022/10/31 07:00:50;;;;;;;31.08;22.13;;;7.70;99.90;;;;;;4929473;29;20047;-71
2022/10/31 07:03:16;;;;;;;18.85;16.85;;;7.70;99.90;;;;;;4928744;29;20086;-71
2022/10/31 07:05:43;;;;;;;22.75;19.15;;;7.70;99.90;;;;;;4928000;29;20047;-71
2022/10/31 07:08:12;;;;;;;22.20;19.63;;;7.70;99.90;;;;;;4928384;29;20039;-71
2022/10/31 07:10:40;;;;;;;21.20;18.35;;;7.60;99.90;;;;;;4928509;29;20106;-71
2022/10/31 07:13:09;;;;;;;27.63;20.87;;;7.50;99.90;;;;;;4923970;29;20048;-71
2022/10/31 07:15:37;;;;;;;23.70;20.27;;;7.60;99.90;;;;;;4927511;29;20122;-71
2022/10/31 07:18:04;;;;;;;15.60;8.18;;;7.60;99.90;;;;;;4927197;29;20103;-71
2022/10/31 07:20:31;;;;;;;9.38;7.32;;;7.60;99.90;;;;;;4928569;29;20501;-71
2022/10/31 07:22:56;;;;;;;9.27;5.32;;;7.60;99.90;;;;;;4927895;29;20051;-71
2022/10/31 07:25:23;;;;;;;10.20;6.47;;;7.50;99.90;;;;;;4931700;29;20050;-71
2022/10/31 07:27:49;;;;;;;11.38;6.60;;;7.50;99.90;;;;;;4928633;29;20058;-71
2022/10/31 07:30:17;;;;;;;20.30;18.27;;;7.50;99.90;;;;;;4928394;29;20048;-71
2022/10/31 07:32:50;;;;;;;22.63;18.80;;;7.50;99.90;;;;;;4928238;29;20082;-71
2022/10/31 07:35:29;;;;;;;10.32;6.03;;;7.60;99.90;;;;;;4927843;29;20082;-71
2022/10/31 07:37:55;;;;;;;20.75;18.60;;;7.50;99.90;;;;;;4927240;29;20078;-71
2022/10/31 07:40:23;;;;;;;11.20;7.57;;;7.60;99.90;;;;;;4929000;29;20497;-71
2022/10/31 07:42:50;;;;;;;29.03;23.20;;;7.60;99.90;;;;;;4928551;29;20130;-71
2022/10/31 07:45:20;;;;;;;14.45;8.25;;;7.60;99.90;;;;;;4929196;29;20374;-71
2022/10/31 07:47:50;;;;;;;25.23;22.58;;;7.60;99.90;;;;;;4923620;29;20154;-71
2022/10/31 07:50:24;;;;;;;22.30;9.25;;;7.70;99.90;;;;;;4944396;29;20556;-71
2022/10/31 07:53:22;;;;;;;15.00;8.30;;;7.70;99.90;;;;;;4929703;29;20054;-72
2022/10/31 07:55:47;;;;;;;;;;;7.80;99.90;;;;;;4900402;29;20062;-73
2022/10/31 07:58:15;;;;;;;27.00;23.55;;;8.40;99.90;;;;;;4928087;29;19926;-73
2022/10/31 08:00:44;;;;;;;26.83;23.88;;;8.10;99.90;;;;;;4928683;29;20499;-73
2022/10/31 08:03:12;;;;;;;28.83;23.80;;;8.10;99.90;;;;;;4928494;29;20083;-73
2022/10/31 08:05:39;;;;;;;26.33;22.88;;;8.10;99.90;;;;;;4928276;29;20055;-73
2022/10/31 08:08:05;;;;;;;48.65;30.02;;;8.10;99.90;;;;;;4929000;29;20056;-73
2022/10/31 08:10:31;;;;;;;45.97;32.47;;;8.30;99.90;;;;;;4928951;29;20051;-74
2022/10/31 08:12:59;;;;;;;43.72;32.80;;;8.30;99.90;;;;;;4928073;29;20044;-73
2022/10/31 08:15:26;;;;;;;52.38;35.05;;;8.50;99.90;;;;;;4928504;29;20055;-73
2022/10/31 08:17:52;;;;;;;21.77;12.40;;;8.50;99.90;;;;;;4926466;29;20075;-73
2022/10/31 08:20:18;;;;;;;26.98;14.18;;;8.70;99.90;;;;;;4929092;29;20055;-73
2022/10/31 08:22:53;;;;;;;51.83;37.67;;;8.60;99.90;;;;;;4931829;29;20052;-73
2022/10/31 08:25:18;;;;;;;56.22;39.95;;;8.90;99.90;;;;;;4933248;29;20051;-73
2022/10/31 08:27:52;;;;;;;74.53;44.10;;;8.90;99.90;;;;;;4932483;29;20473;-73
2022/10/31 08:30:19;;;;;;;32.38;16.25;;;9.10;99.90;;;;;;4933284;29;20142;-73
2022/10/31 08:32:44;;;;;;;29.23;14.45;;;9.20;99.90;;;;;;4932582;29;20059;-73
2022/10/31 08:35:10;;;;;;;62.42;44.83;;;9.20;99.90;;;;;;4932446;29;20480;-73
2022/10/31 08:37:35;;;;;;;29.55;13.70;;;9.30;99.90;;;;;;4931766;29;20413;-73
2022/10/31 08:40:01;;;;;;;24.83;13.10;;;9.30;99.90;;;;;;4932232;29;20778;-73
2022/10/31 08:42:27;;;;;;;65.78;45.80;;;9.50;99.90;;;;;;4931992;29;20973;-72
2022/10/31 08:44:52;;;;;;;69.03;49.05;;;9.50;99.90;;;;;;4930120;29;20489;-73
2022/10/31 08:47:18;;;;;;;71.07;51.63;;;9.70;99.90;;;;;;4932539;29;20470;-73
2022/10/31 08:49:43;;;;;;;75.85;51.33;;;9.80;99.90;;;;;;4932803;29;20043;-73
2022/10/31 08:52:09;;;;;;;80.78;51.72;;;9.90;99.90;;;;;;4930654;29;20515;-73
2022/10/31 08:54:35;;;;;;;72.75;46.20;;;10.00;99.90;;;;;;4946202;29;20043;-73
2022/10/31 08:57:00;;;;;;;79.90;53.55;;;10.20;99.90;;;;;;4930832;29;20411;-73
2022/10/31 08:59:26;;;;;;;78.93;51.75;;;10.30;99.90;;;;;;4932053;29;20150;-73
2022/10/31 09:01:51;;;;;;;77.20;49.78;;;10.40;99.90;;;;;;4930171;29;20054;-73
2022/10/31 09:04:17;;;;;;;39.65;17.35;;;10.70;99.90;;;;;;4946097;29;20087;-73
2022/10/31 09:06:43;;;;;;;85.38;54.17;;;10.80;99.90;;;;;;4928743;29;20055;-74
2022/10/31 09:09:08;;;;;;;57.80;21.40;;;10.80;99.90;;;;;;4931612;29;20048;-75
2022/10/31 09:11:34;;;;;;;40.85;19.77;;;10.90;99.90;;;;;;4932905;29;20464;-74
2022/10/31 09:14:00;;;;;;;82.18;52.60;;;11.20;99.90;;;;;;4932378;29;20055;-73
2022/10/31 09:16:25;;;;;;;76.38;52.70;;;11.10;99.90;;;;;;4947336;28;20086;-71
2022/10/31 09:18:51;;;;;;;82.15;54.45;;;11.20;99.90;;;;;;4932415;29;20130;-71
2022/10/31 09:21:17;;;;;;;92.60;55.15;;;11.30;99.90;;;;;;4931863;29;20046;-71
2022/10/31 09:23:42;;;;;;;76.95;52.67;;;11.40;99.90;;;;;;4932982;29;20052;-71
2022/10/31 09:26:08;;;;;;;77.65;49.85;;;11.50;99.90;;;;;;4933067;29;20107;-71
2022/10/31 09:28:33;;;;;;;81.32;51.08;;;11.60;99.90;;;;;;4931604;29;20043;-71
2022/10/31 09:30:59;;;;;;;77.88;52.88;;;11.80;99.90;;;;;;4931753;29;20063;-71
2022/10/31 09:33:25;;;;;;;69.93;48.85;;;11.90;99.90;;;;;;4933733;29;20408;-71
2022/10/31 09:35:50;;;;;;;74.57;49.95;;;12.10;99.90;;;;;;4929532;29;20051;-71
2022/10/31 09:38:23;;;;;;;83.93;52.53;;;12.20;99.90;;;;;;4927641;29;20075;-71
2022/10/31 09:41:14;;;;;;;73.90;47.97;;;12.40;99.90;;;;;;4947374;28;20044;-71
2022/10/31 09:43:49;;;;;;;73.25;46.80;;;12.40;99.90;;;;;;4927335;29;20091;-71
2022/10/31 09:46:33;;;;;;;68.00;48.08;;;12.50;99.90;;;;;;4928261;29;20056;-71
2022/10/31 09:49:22;;;;;;;74.45;48.28;;;12.80;99.90;;;;;;4932946;29;20083;-71
2022/10/31 09:52:04;;;;;;;72.80;49.15;;;12.80;99.90;;;;;;4945190;28;20123;-70
2022/10/31 09:54:42;;;;;;;78.88;50.13;;;12.90;99.90;;;;;;4930199;29;20051;-70
2022/10/31 09:57:14;;;;;;;77.57;51.35;;;12.90;99.90;;;;;;4931494;29;20051;-71
2022/10/31 09:59:43;;;;;;;90.32;52.25;;;12.90;99.90;;;;;;4931047;29;20456;-71
2022/10/31 10:02:23;;;;;;;81.93;51.03;;;13.00;99.90;;;;;;4946813;29;20098;-71
2022/10/31 10:04:54;;;;;;;82.93;51.70;;;12.90;99.90;;;;;;4943015;29;20036;-71
2022/10/31 10:07:30;;;;;;;70.90;48.47;;;13.00;99.90;;;;;;4945826;29;20405;-71
2022/10/31 10:09:57;;;;;;;84.05;53.13;;;13.00;99.90;;;;;;4930413;29;20042;-71
2022/10/31 10:12:22;;;;;;;90.32;53.17;;;13.20;99.90;;;;;;4947623;28;20063;-71
2022/10/31 10:15:06;;;;;;;77.57;51.28;;;13.10;99.90;;;;;;4945536;29;20416;-71
2022/10/31 10:17:34;;;;;;;81.53;53.42;;;13.20;99.90;;;;;;4930631;29;20055;-71
2022/10/31 10:20:07;;;;;;;;;;;13.20;99.90;;;;;;4933023;29;20059;-71
2022/10/31 10:22:40;;;;;;;89.65;52.95;;;13.20;99.90;;;;;;4932117;29;19927;-71
2022/10/31 10:25:23;;;;;;;76.22;50.50;;;13.40;99.90;;;;;;4930621;29;20095;-71
2022/10/31 10:28:06;;;;;;;74.25;49.58;;;13.40;99.90;;;;;;4931583;29;20636;-71
2022/10/31 10:30:41;;;;;;;97.18;52.85;;;13.50;99.90;;;;;;4930375;29;20058;-71
2022/10/31 10:33:38;;;;;;;85.43;52.05;;;13.60;99.90;;;;;;4931261;29;20158;-71
2022/10/31 10:36:08;;;;;;;85.37;49.57;;;13.80;99.90;;;;;;4919481;29;20586;-71
2022/10/31 10:38:58;;;;;;;71.72;49.08;;;13.80;99.90;;;;;;4946390;29;20300;-71
2022/10/31 10:41:27;;;;;;;64.40;42.45;;;14.00;99.90;;;;;;4920902;29;20051;-71
2022/10/31 10:43:55;;;;;;;75.95;45.92;;;14.10;99.90;;;;;;4946224;28;20056;-71
2022/10/31 10:49:51;;;;;;;69.43;43.40;;;14.30;99.90;;;;;;4930808;29;20067;-71
2022/10/31 10:52:20;;;;;;;79.95;49.28;;;14.40;99.90;;;;;;4919044;29;20118;-71
2022/10/31 10:55:04;;;;;;;67.93;43.13;;;14.40;99.90;;;;;;4946401;28;20047;-71
2022/10/31 10:57:50;;;;;;;66.43;41.72;;;14.50;99.90;;;;;;4930442;29;20059;-71
2022/10/31 11:00:29;;;;;;;77.32;42.95;;;14.60;99.90;;;;;;4931550;29;20066;-71
2022/10/31 11:02:55;;;;;;;68.07;41.50;;;14.60;99.90;;;;;;4930774;29;20111;-71
2022/10/31 11:06:01;;;;;;;60.90;41.95;;;14.70;99.90;;;;;;4930818;29;20163;-71
2022/10/31 11:08:36;;;;;;;66.75;39.85;;;14.70;99.90;;;;;;4923246;29;20533;-72
2022/10/31 11:11:10;;;;;;;61.63;38.15;;;14.80;99.90;;;;;;4925937;29;20052;-72
2022/10/31 11:13:36;;;;;;;69.07;38.50;;;14.90;99.90;;;;;;4929608;29;20056;-71
2022/10/31 11:16:14;;;;;;;68.10;41.78;;;14.90;99.90;;;;;;4929108;29;20135;-72
2022/10/31 11:18:44;;;;;;;72.40;43.15;;;14.90;99.90;;;;;;4930030;29;20043;-70
2022/10/31 11:21:33;;;;;;;67.85;41.30;;;15.10;99.90;;;;;;4944898;29;20063;-70
2022/10/31 11:24:10;;;;;;;66.93;41.33;;;15.30;99.90;;;;;;4930355;29;20098;-70
2022/10/31 11:26:37;;;;;;;72.20;39.15;;;15.40;99.90;;;;;;4926630;29;20051;-70
2022/10/31 11:29:05;;;;;;;62.53;38.17;;;15.40;99.90;;;;;;4930304;29;20512;-70
2022/10/31 11:31:34;;;;;;;77.32;39.67;;;15.40;99.90;;;;;;4944918;29;20064;-70
2022/10/31 11:34:12;;;;;;;78.78;41.00;;;15.30;99.90;;;;;;4926183;29;20060;-70
2022/10/31 11:36:42;;;;;;;66.75;37.35;;;15.50;99.90;;;;;;4929234;29;20056;-70
2022/10/31 11:39:21;;;;;;;70.25;36.00;;;15.20;99.90;;;;;;4929694;29;20073;-71
2022/10/31 11:41:48;;;;;;;65.68;32.90;;;15.40;99.90;;;;;;4928221;29;20119;-70
2022/10/31 11:44:27;;;;;;;51.97;31.52;;;15.40;99.90;;;;;;4930161;29;20058;-70
2022/10/31 11:47:14;;;;;;;52.17;32.05;;;15.50;99.90;;;;;;4931048;29;20052;-70
2022/10/31 11:49:43;;;;;;;57.60;33.92;;;15.60;99.90;;;;;;4929396;29;20051;-70
2022/10/31 11:52:13;;;;;;;;;;;15.60;99.90;;;;;;4931830;29;20051;-70
2022/10/31 11:54:50;;;;;;;63.00;33.45;;;15.50;99.90;;;;;;4929189;29;19922;-70
2022/10/31 11:57:26;;;;;;;54.22;31.65;;;15.40;99.90;;;;;;4933604;29;20082;-70
2022/10/31 11:59:57;;;;;;;56.58;34.88;;;15.40;99.90;;;;;;4928870;29;20268;-71
2022/10/31 12:02:24;;;;;;;56.90;31.58;;;15.50;99.90;;;;;;4934497;29;20043;-70
2022/10/31 12:05:17;;;;;;;58.75;34.45;;;15.50;99.90;;;;;;4935126;29;20036;-70
2022/10/31 12:07:44;;;;;;;58.50;35.72;;;15.60;99.90;;;;;;4935157;29;20188;-70
2022/10/31 12:10:13;;;;;;;53.13;35.53;;;15.60;99.90;;;;;;4933526;29;20058;-70
2022/10/31 12:13:05;;;;;;;55.97;35.85;;;15.60;99.90;;;;;;4933408;29;20055;-70
2022/10/31 12:15:36;;;;;;;58.03;33.70;;;15.60;99.90;;;;;;4938313;29;20048;-70
2022/10/31 12:18:23;;;;;;;58.95;35.45;;;15.60;99.90;;;;;;4932529;29;20103;-70
2022/10/31 12:20:55;;;;;;;61.03;34.65;;;15.60;99.90;;;;;;4922209;29;20120;-70
2022/10/31 12:23:39;;;;;;;56.28;34.42;;;15.60;99.90;;;;;;4933860;29;20067;-70
2022/10/31 12:26:33;;;;;;;60.08;34.50;;;15.60;99.90;;;;;;4933109;29;20054;-70
2022/10/31 12:29:20;;;;;;;59.17;34.33;;;15.60;99.90;;;;;;4931377;29;20051;-71
2022/10/31 12:32:09;;;;;;;61.03;34.15;;;15.50;99.90;;;;;;4932696;29;20055;-70
2022/10/31 12:34:47;;;;;;;51.25;31.48;;;16.00;99.90;;;;;;4924238;29;20059;-70
2022/10/31 12:37:37;;;;;;;61.15;35.60;;;15.50;99.90;;;;;;4929599;29;20758;-70
2022/10/31 12:40:24;;;;;;;53.50;32.22;;;15.50;99.90;;;;;;4929268;29;20051;-70
2022/10/31 12:42:50;;;;;;;55.38;33.78;;;15.50;99.90;;;;;;4931756;29;20074;-70
2022/10/31 12:45:44;;;;;;;63.45;34.20;;;15.40;99.90;;;;;;4931044;29;20501;-69
2022/10/31 12:48:15;;;;;;;69.60;33.83;;;15.40;99.90;;;;;;4915771;29;20050;-70
2022/10/31 12:51:06;;;;;;;58.30;34.53;;;15.30;99.90;;;;;;4931370;29;20051;-70
2022/10/31 12:54:01;;;;;;;58.40;33.83;;;15.40;99.90;;;;;;4930863;29;20111;-70
2022/10/31 12:57:07;;;;;;;59.28;34.38;;;15.40;99.90;;;;;;4914526;29;20047;-70